Aeroporto :







RITROVATECI SU...

 
LOGIN :

Iscrizione | Disclaimer

   EN    FR    IT 

 









Sommario :    VFR   VFR Marginale   IFR   IFR Intensivo   IFR Molto Intensivo
Visibilità : 
Base nubi : 
>= 8 km
>= 3000ft
5 / 8 km
1000 / 3000 ft
1500m / 5 km
500 / 1000 ft
800 / 1500m
200 / 500 ft
< 800m
< 200 ft
Simboli :   Temporali  Nebbia  Neve Forte  Precipitazioni Forti  Vento > 20 kt






- Altitudine del aeroporto : 35 ft
- Codice IATA : YGR


CYGR - ëles-de-la-Madeleine

ULTIMO METAR :
  • 171100Z 23010KT 20SM SCT180 M03/M06 A2996 RMK AC4 SLP148

METARs OBSOLETI :
  • 171000Z 22010KT 15SM BKN180 M03/M06 A2997 RMK AS7 SLP151

TAF TAF CYGR
Valido dal 17 a 12 ore il 18 a 00 ore UTC


171139Z 1712/1724 22010KT P6SM SCT050 BKN180
TEMPO 1712/1717 BKN040
FM171700 29012KT 3SM -SN OVC015
TEMPO 1717/1722 6SM -SN
FM172200 30015G25KT P6SM FEW025 RMK NXT FCST BY 171400Z



MetMap, La meteo Aeronautica in un colpo d'occhio ! - Copyright ORBIFLY Dicembre 2007 - Disclaimer

ORBIFLY MET'MAP TEAM :

Programmazione e sviluppo : Alexandra Zaïnal
Concezione : Baudouin d'Aumeries
Aiuto per la programmazione : Marc-Olivier Méhu
Supporto tecnico e logistico : Manuel Goepfert
Aiuto per la traduzione : Arnaldo La Scala

Contatto : metmap@orbifly.com




FONTI E CREDITI :

   NOAA